sensor_id;sensor_type;location;lat;lon;timestamp;pressure;altitude;pressure_sealevel;temperature;humidity
30636;BME280;17400;52.392;9.750;2022-12-18T00:00:04;102367.50;;;-2.24;94.30
30636;BME280;17400;52.392;9.750;2022-12-18T00:02:32;102355.81;;;-2.20;94.79
30636;BME280;17400;52.392;9.750;2022-12-18T00:05:00;102361.81;;;-2.16;94.22
30636;BME280;17400;52.392;9.750;2022-12-18T00:07:27;102351.19;;;-1.97;93.74
30636;BME280;17400;52.392;9.750;2022-12-18T00:09:55;102356.50;;;-1.97;93.41
30636;BME280;17400;52.392;9.750;2022-12-18T00:12:24;102352.53;;;-1.88;92.74
30636;BME280;17400;52.392;9.750;2022-12-18T00:14:52;102368.88;;;-1.78;91.94
30636;BME280;17400;52.392;9.750;2022-12-18T00:17:20;102374.31;;;-1.81;91.19
30636;BME280;17400;52.392;9.750;2022-12-18T00:19:47;102383.72;;;-1.93;91.07
30636;BME280;17400;52.392;9.750;2022-12-18T00:22:15;102383.09;;;-1.98;91.66
30636;BME280;17400;52.392;9.750;2022-12-18T00:24:43;102385.13;;;-2.04;91.77
30636;BME280;17400;52.392;9.750;2022-12-18T00:27:10;102380.19;;;-2.11;92.41
30636;BME280;17400;52.392;9.750;2022-12-18T00:29:39;102379.81;;;-2.23;92.38
30636;BME280;17400;52.392;9.750;2022-12-18T00:32:07;102380.63;;;-2.21;92.68
30636;BME280;17400;52.392;9.750;2022-12-18T00:34:35;102372.22;;;-2.11;93.05
30636;BME280;17400;52.392;9.750;2022-12-18T00:37:04;102378.47;;;-2.12;92.35
30636;BME280;17400;52.392;9.750;2022-12-18T00:39:32;102375.66;;;-2.09;92.81
30636;BME280;17400;52.392;9.750;2022-12-18T00:41:59;102366.56;;;-2.04;92.32
30636;BME280;17400;52.392;9.750;2022-12-18T00:44:48;102373.88;;;-2.09;92.30
30636;BME280;17400;52.392;9.750;2022-12-18T00:47:16;102376.28;;;-2.04;91.76
30636;BME280;17400;52.392;9.750;2022-12-18T00:49:44;102378.59;;;-1.96;92.03
30636;BME280;17400;52.392;9.750;2022-12-18T00:52:12;102392.41;;;-1.90;92.01
30636;BME280;17400;52.392;9.750;2022-12-18T00:54:40;102395.78;;;-1.86;91.49
30636;BME280;17400;52.392;9.750;2022-12-18T00:57:08;102391.78;;;-1.95;91.31
30636;BME280;17400;52.392;9.750;2022-12-18T00:59:35;102398.09;;;-1.97;91.51
30636;BME280;17400;52.392;9.750;2022-12-18T01:02:04;102388.78;;;-2.06;91.22
30636;BME280;17400;52.392;9.750;2022-12-18T01:04:33;102388.88;;;-2.27;91.75
30636;BME280;17400;52.392;9.750;2022-12-18T01:07:01;102393.16;;;-2.24;92.33
30636;BME280;17400;52.392;9.750;2022-12-18T01:09:28;102387.78;;;-2.23;92.42
30636;BME280;17400;52.392;9.750;2022-12-18T01:11:56;102385.38;;;-2.27;92.31
30636;BME280;17400;52.392;9.750;2022-12-18T01:14:24;102379.09;;;-2.26;92.60
30636;BME280;17400;52.392;9.750;2022-12-18T01:16:52;102378.19;;;-2.44;93.06
30636;BME280;17400;52.392;9.750;2022-12-18T01:19:21;102386.22;;;-2.46;93.17
30636;BME280;17400;52.392;9.750;2022-12-18T01:21:49;102383.84;;;-2.33;93.33
30636;BME280;17400;52.392;9.750;2022-12-18T01:24:16;102394.31;;;-2.30;93.31
30636;BME280;17400;52.392;9.750;2022-12-18T01:26:44;102388.66;;;-2.41;93.19
30636;BME280;17400;52.392;9.750;2022-12-18T01:29:12;102387.72;;;-2.40;93.47
30636;BME280;17400;52.392;9.750;2022-12-18T01:31:39;102386.81;;;-2.39;93.56
30636;BME280;17400;52.392;9.750;2022-12-18T01:34:08;102390.22;;;-2.37;93.06
30636;BME280;17400;52.392;9.750;2022-12-18T01:36:38;102385.66;;;-2.33;92.92
30636;BME280;17400;52.392;9.750;2022-12-18T01:39:09;102390.78;;;-2.30;92.72
30636;BME280;17400;52.392;9.750;2022-12-18T01:41:39;102391.81;;;-2.33;92.96
30636;BME280;17400;52.392;9.750;2022-12-18T01:44:54;102394.41;;;-2.31;93.09
30636;BME280;17400;52.392;9.750;2022-12-18T01:47:25;102397.97;;;-2.32;93.10
30636;BME280;17400;52.392;9.750;2022-12-18T01:49:55;102412.91;;;-2.30;92.94
30636;BME280;17400;52.392;9.750;2022-12-18T01:52:26;102412.25;;;-2.35;93.29
30636;BME280;17400;52.392;9.750;2022-12-18T01:54:55;102406.22;;;-2.39;93.42
30636;BME280;17400;52.392;9.750;2022-12-18T01:57:25;102413.16;;;-2.36;93.13
30636;BME280;17400;52.392;9.750;2022-12-18T01:59:57;102407.13;;;-2.40;93.21
30636;BME280;17400;52.392;9.750;2022-12-18T02:02:26;102415.81;;;-2.36;93.05
30636;BME280;17400;52.392;9.750;2022-12-18T02:04:55;102412.94;;;-2.51;93.95
30636;BME280;17400;52.392;9.750;2022-12-18T02:07:33;102417.47;;;-2.53;94.55
30636;BME280;17400;52.392;9.750;2022-12-18T02:10:06;102417.06;;;-2.43;94.06
30636;BME280;17400;52.392;9.750;2022-12-18T02:12:41;102429.50;;;-2.45;93.74
30636;BME280;17400;52.392;9.750;2022-12-18T02:15:14;102425.13;;;-2.46;94.17
30636;BME280;17400;52.392;9.750;2022-12-18T02:17:47;102424.00;;;-2.41;93.89
30636;BME280;17400;52.392;9.750;2022-12-18T02:20:20;102422.63;;;-2.49;94.12
30636;BME280;17400;52.392;9.750;2022-12-18T02:23:01;102422.97;;;-2.57;94.31
30636;BME280;17400;52.392;9.750;2022-12-18T02:25:42;102422.91;;;-2.56;94.40
30636;BME280;17400;52.392;9.750;2022-12-18T02:28:16;102421.78;;;-2.50;94.48
30636;BME280;17400;52.392;9.750;2022-12-18T02:30:48;102416.00;;;-2.60;94.38
30636;BME280;17400;52.392;9.750;2022-12-18T02:33:19;102417.97;;;-2.44;94.56
30636;BME280;17400;52.392;9.750;2022-12-18T02:35:48;102414.59;;;-2.48;94.07
30636;BME280;17400;52.392;9.750;2022-12-18T02:38:17;102407.50;;;-2.47;93.86
30636;BME280;17400;52.392;9.750;2022-12-18T02:40:45;102401.41;;;-2.49;93.99
30636;BME280;17400;52.392;9.750;2022-12-18T02:43:15;102411.03;;;-2.47;93.94
30636;BME280;17400;52.392;9.750;2022-12-18T02:45:47;102409.28;;;-2.48;93.72
30636;BME280;17400;52.392;9.750;2022-12-18T02:48:16;102408.28;;;-2.45;93.79
30636;BME280;17400;52.392;9.750;2022-12-18T02:50:48;102402.84;;;-2.42;92.92
30636;BME280;17400;52.392;9.750;2022-12-18T02:53:24;102399.84;;;-2.54;93.73
30636;BME280;17400;52.392;9.750;2022-12-18T02:56:00;102397.09;;;-2.52;93.00
30636;BME280;17400;52.392;9.750;2022-12-18T02:58:35;102400.38;;;-2.66;94.23
30636;BME280;17400;52.392;9.750;2022-12-18T03:01:12;102396.03;;;-2.67;93.89
30636;BME280;17400;52.392;9.750;2022-12-18T03:03:45;102409.69;;;-2.76;94.46
30636;BME280;17400;52.392;9.750;2022-12-18T03:06:20;102404.72;;;-2.84;94.28
30636;BME280;17400;52.392;9.750;2022-12-18T03:08:54;102399.94;;;-2.76;94.91
30636;BME280;17400;52.392;9.750;2022-12-18T03:11:25;102397.91;;;-2.90;95.69
30636;BME280;17400;52.392;9.750;2022-12-18T03:14:10;102399.50;;;-2.86;95.54
30636;BME280;17400;52.392;9.750;2022-12-18T03:16:42;102400.94;;;-2.78;95.37
30636;BME280;17400;52.392;9.750;2022-12-18T03:19:15;102394.44;;;-2.71;94.95
30636;BME280;17400;52.392;9.750;2022-12-18T03:21:48;102389.34;;;-2.76;94.69
30636;BME280;17400;52.392;9.750;2022-12-18T03:24:18;102385.44;;;-2.88;95.61
30636;BME280;17400;52.392;9.750;2022-12-18T03:26:51;102383.13;;;-2.95;96.74
30636;BME280;17400;52.392;9.750;2022-12-18T03:29:25;102392.22;;;-3.01;97.02
30636;BME280;17400;52.392;9.750;2022-12-18T03:32:04;102389.56;;;-3.22;97.79
30636;BME280;17400;52.392;9.750;2022-12-18T03:34:35;102386.25;;;-3.27;98.84
30636;BME280;17400;52.392;9.750;2022-12-18T03:37:03;102398.84;;;-3.32;98.73
30636;BME280;17400;52.392;9.750;2022-12-18T03:39:32;102405.06;;;-3.12;98.73
30636;BME280;17400;52.392;9.750;2022-12-18T03:42:05;102409.13;;;-3.04;97.26
30636;BME280;17400;52.392;9.750;2022-12-18T03:44:40;102409.50;;;-3.13;98.24
30636;BME280;17400;52.392;9.750;2022-12-18T03:47:14;102408.44;;;-3.09;97.43
30636;BME280;17400;52.392;9.750;2022-12-18T03:49:47;102405.72;;;-3.07;97.33
30636;BME280;17400;52.392;9.750;2022-12-18T03:52:21;102402.59;;;-2.96;96.81
30636;BME280;17400;52.392;9.750;2022-12-18T03:54:50;102409.97;;;-2.82;96.46
30636;BME280;17400;52.392;9.750;2022-12-18T03:57:20;102413.13;;;-2.74;95.79
30636;BME280;17400;52.392;9.750;2022-12-18T03:59:52;102411.69;;;-2.81;95.07
30636;BME280;17400;52.392;9.750;2022-12-18T04:02:23;102418.31;;;-2.71;94.96
30636;BME280;17400;52.392;9.750;2022-12-18T04:04:53;102412.06;;;-2.70;94.21
30636;BME280;17400;52.392;9.750;2022-12-18T04:07:24;102411.84;;;-2.65;94.49
30636;BME280;17400;52.392;9.750;2022-12-18T04:09:55;102411.72;;;-2.62;93.85
30636;BME280;17400;52.392;9.750;2022-12-18T04:12:24;102414.69;;;-2.70;93.85
30636;BME280;17400;52.392;9.750;2022-12-18T04:14:53;102418.31;;;-2.71;94.39
30636;BME280;17400;52.392;9.750;2022-12-18T04:17:21;102413.94;;;-2.72;94.21
30636;BME280;17400;52.392;9.750;2022-12-18T04:19:50;102416.56;;;-2.72;94.00
30636;BME280;17400;52.392;9.750;2022-12-18T04:22:18;102421.94;;;-2.74;93.30
30636;BME280;17400;52.392;9.750;2022-12-18T04:24:46;102415.66;;;-2.71;93.26
30636;BME280;17400;52.392;9.750;2022-12-18T04:27:14;102411.38;;;-2.75;92.90
30636;BME280;17400;52.392;9.750;2022-12-18T04:29:42;102409.03;;;-2.81;93.92
30636;BME280;17400;52.392;9.750;2022-12-18T04:32:11;102406.66;;;-2.88;93.07
30636;BME280;17400;52.392;9.750;2022-12-18T04:34:39;102402.16;;;-2.86;93.40
30636;BME280;17400;52.392;9.750;2022-12-18T04:37:06;102405.50;;;-2.82;93.06
30636;BME280;17400;52.392;9.750;2022-12-18T04:39:34;102408.03;;;-2.79;93.13
30636;BME280;17400;52.392;9.750;2022-12-18T04:42:02;102417.28;;;-2.69;92.21
30636;BME280;17400;52.392;9.750;2022-12-18T04:44:30;102408.38;;;-2.87;91.74
30636;BME280;17400;52.392;9.750;2022-12-18T04:46:57;102401.94;;;-2.81;91.80
30636;BME280;17400;52.392;9.750;2022-12-18T04:49:26;102394.31;;;-2.89;90.70
30636;BME280;17400;52.392;9.750;2022-12-18T04:51:54;102390.22;;;-2.96;90.50
30636;BME280;17400;52.392;9.750;2022-12-18T04:54:22;102395.47;;;-2.94;91.22
30636;BME280;17400;52.392;9.750;2022-12-18T04:56:49;102398.19;;;-2.96;91.08
30636;BME280;17400;52.392;9.750;2022-12-18T04:59:17;102402.75;;;-2.99;91.22
30636;BME280;17400;52.392;9.750;2022-12-18T05:01:45;102398.00;;;-3.12;91.86
30636;BME280;17400;52.392;9.750;2022-12-18T05:04:13;102398.38;;;-3.21;92.88
30636;BME280;17400;52.392;9.750;2022-12-18T05:06:42;102397.50;;;-3.22;93.60
30636;BME280;17400;52.392;9.750;2022-12-18T05:09:10;102410.91;;;-3.25;93.87
30636;BME280;17400;52.392;9.750;2022-12-18T05:11:38;102402.03;;;-3.24;93.52
30636;BME280;17400;52.392;9.750;2022-12-18T05:14:05;102401.97;;;-3.22;94.01
30636;BME280;17400;52.392;9.750;2022-12-18T05:16:33;102412.56;;;-3.22;93.39
30636;BME280;17400;52.392;9.750;2022-12-18T05:19:01;102413.88;;;-3.32;94.05
30636;BME280;17400;52.392;9.750;2022-12-18T05:21:29;102415.16;;;-3.43;94.11
30636;BME280;17400;52.392;9.750;2022-12-18T05:23:58;102417.38;;;-3.32;94.19
30636;BME280;17400;52.392;9.750;2022-12-18T05:26:25;102418.16;;;-3.50;94.31
30636;BME280;17400;52.392;9.750;2022-12-18T05:28:56;102417.59;;;-3.59;94.74
30636;BME280;17400;52.392;9.750;2022-12-18T05:31:23;102410.16;;;-3.71;95.78
30636;BME280;17400;52.392;9.750;2022-12-18T05:33:51;102410.97;;;-3.69;95.78
30636;BME280;17400;52.392;9.750;2022-12-18T05:36:19;102417.91;;;-3.66;95.54
30636;BME280;17400;52.392;9.750;2022-12-18T05:38:47;102427.41;;;-3.61;94.89
30636;BME280;17400;52.392;9.750;2022-12-18T05:41:16;102430.72;;;-3.56;95.37
30636;BME280;17400;52.392;9.750;2022-12-18T05:43:44;102431.94;;;-3.42;94.41
30636;BME280;17400;52.392;9.750;2022-12-18T05:46:13;102433.84;;;-3.46;93.68
30636;BME280;17400;52.392;9.750;2022-12-18T05:48:41;102429.59;;;-3.50;94.39
30636;BME280;17400;52.392;9.750;2022-12-18T05:51:10;102442.59;;;-3.44;94.33
30636;BME280;17400;52.392;9.750;2022-12-18T05:53:38;102440.81;;;-3.43;94.10
30636;BME280;17400;52.392;9.750;2022-12-18T05:56:08;102448.19;;;-3.52;93.88
30636;BME280;17400;52.392;9.750;2022-12-18T05:58:39;102455.16;;;-3.49;94.44
30636;BME280;17400;52.392;9.750;2022-12-18T06:01:09;102439.69;;;-3.38;94.07
30636;BME280;17400;52.392;9.750;2022-12-18T06:03:37;102448.28;;;-3.32;92.94
30636;BME280;17400;52.392;9.750;2022-12-18T06:06:13;102438.59;;;-3.32;92.96
30636;BME280;17400;52.392;9.750;2022-12-18T06:08:41;102434.31;;;-3.36;91.56
30636;BME280;17400;52.392;9.750;2022-12-18T06:11:12;102434.59;;;-3.42;91.63
30636;BME280;17400;52.392;9.750;2022-12-18T06:13:42;102444.00;;;-3.57;92.42
30636;BME280;17400;52.392;9.750;2022-12-18T06:16:09;102441.00;;;-3.70;92.87
30636;BME280;17400;52.392;9.750;2022-12-18T06:18:37;102451.75;;;-3.75;92.71
30636;BME280;17400;52.392;9.750;2022-12-18T06:21:05;102449.25;;;-3.78;93.62
30636;BME280;17400;52.392;9.750;2022-12-18T06:23:33;102448.94;;;-3.70;93.86
30636;BME280;17400;52.392;9.750;2022-12-18T06:26:04;102456.22;;;-3.75;93.74
30636;BME280;17400;52.392;9.750;2022-12-18T06:28:32;102447.59;;;-3.80;94.20
30636;BME280;17400;52.392;9.750;2022-12-18T06:31:02;102446.53;;;-3.76;94.55
30636;BME280;17400;52.392;9.750;2022-12-18T06:33:30;102446.91;;;-3.86;94.73
30636;BME280;17400;52.392;9.750;2022-12-18T06:36:00;102447.94;;;-3.90;94.63
30636;BME280;17400;52.392;9.750;2022-12-18T06:38:28;102441.38;;;-3.79;94.79
30636;BME280;17400;52.392;9.750;2022-12-18T06:40:57;102442.34;;;-3.82;94.25
30636;BME280;17400;52.392;9.750;2022-12-18T06:43:24;102441.53;;;-3.84;93.99
30636;BME280;17400;52.392;9.750;2022-12-18T06:45:58;102446.00;;;-3.85;94.60
30636;BME280;17400;52.392;9.750;2022-12-18T06:48:28;102453.84;;;-3.83;95.32
30636;BME280;17400;52.392;9.750;2022-12-18T06:50:56;102454.22;;;-3.92;95.27
30636;BME280;17400;52.392;9.750;2022-12-18T06:53:23;102455.69;;;-3.85;96.00
30636;BME280;17400;52.392;9.750;2022-12-18T06:55:51;102452.75;;;-3.77;95.61
30636;BME280;17400;52.392;9.750;2022-12-18T06:58:19;102454.59;;;-3.79;96.07
30636;BME280;17400;52.392;9.750;2022-12-18T07:00:46;102462.97;;;-3.68;96.13
30636;BME280;17400;52.392;9.750;2022-12-18T07:03:14;102458.19;;;-3.80;95.72
30636;BME280;17400;52.392;9.750;2022-12-18T07:05:43;102463.03;;;-3.70;95.88
30636;BME280;17400;52.392;9.750;2022-12-18T07:08:11;102463.72;;;-3.64;95.20
30636;BME280;17400;52.392;9.750;2022-12-18T07:10:42;102476.50;;;-3.76;95.30
30636;BME280;17400;52.392;9.750;2022-12-18T07:13:18;102472.78;;;-3.70;95.89
30636;BME280;17400;52.392;9.750;2022-12-18T07:15:46;102474.91;;;-3.58;95.51
30636;BME280;17400;52.392;9.750;2022-12-18T07:18:14;102475.78;;;-3.57;94.86
30636;BME280;17400;52.392;9.750;2022-12-18T07:20:41;102475.84;;;-3.59;95.05
30636;BME280;17400;52.392;9.750;2022-12-18T07:23:10;102489.06;;;-3.59;93.90
30636;BME280;17400;52.392;9.750;2022-12-18T07:25:38;102496.91;;;-3.56;94.60
30636;BME280;17400;52.392;9.750;2022-12-18T07:28:06;102493.03;;;-3.69;94.78
30636;BME280;17400;52.392;9.750;2022-12-18T07:30:41;102489.69;;;-3.74;94.72
30636;BME280;17400;52.392;9.750;2022-12-18T07:33:08;102486.09;;;-3.73;95.38
30636;BME280;17400;52.392;9.750;2022-12-18T07:35:36;102491.41;;;-3.73;94.82
30636;BME280;17400;52.392;9.750;2022-12-18T07:38:04;102493.13;;;-3.72;94.79
30636;BME280;17400;52.392;9.750;2022-12-18T07:40:33;102498.66;;;-3.78;94.17
30636;BME280;17400;52.392;9.750;2022-12-18T07:43:01;102505.97;;;-3.85;94.20
30636;BME280;17400;52.392;9.750;2022-12-18T07:45:29;102515.69;;;-3.86;93.86
30636;BME280;17400;52.392;9.750;2022-12-18T07:47:57;102507.53;;;-3.79;94.20
30636;BME280;17400;52.392;9.750;2022-12-18T07:50:25;102509.13;;;-3.75;94.44
30636;BME280;17400;52.392;9.750;2022-12-18T07:52:54;102512.28;;;-3.65;94.67
30636;BME280;17400;52.392;9.750;2022-12-18T07:55:21;102509.53;;;-3.62;94.56
30636;BME280;17400;52.392;9.750;2022-12-18T07:57:50;102504.59;;;-3.49;93.90
30636;BME280;17400;52.392;9.750;2022-12-18T08:00:24;102495.59;;;-3.45;93.16
30636;BME280;17400;52.392;9.750;2022-12-18T08:02:52;102483.22;;;-3.45;93.41
30636;BME280;17400;52.392;9.750;2022-12-18T08:05:20;102481.72;;;-3.50;92.42
30636;BME280;17400;52.392;9.750;2022-12-18T08:07:49;102490.31;;;-3.67;93.67
30636;BME280;17400;52.392;9.750;2022-12-18T08:10:19;102484.97;;;-3.66;94.46
30636;BME280;17400;52.392;9.750;2022-12-18T08:12:50;102484.66;;;-3.58;94.12
30636;BME280;17400;52.392;9.750;2022-12-18T08:15:19;102479.47;;;-3.61;94.37
30636;BME280;17400;52.392;9.750;2022-12-18T08:17:48;102488.28;;;-3.61;93.73
30636;BME280;17400;52.392;9.750;2022-12-18T08:20:16;102483.28;;;-3.69;94.33
30636;BME280;17400;52.392;9.750;2022-12-18T08:22:44;102479.59;;;-3.64;94.13
30636;BME280;17400;52.392;9.750;2022-12-18T08:25:12;102478.63;;;-3.62;94.34
30636;BME280;17400;52.392;9.750;2022-12-18T08:27:40;102482.06;;;-3.60;94.16
30636;BME280;17400;52.392;9.750;2022-12-18T08:30:11;102480.53;;;-3.43;94.30
30636;BME280;17400;52.392;9.750;2022-12-18T08:32:38;102475.47;;;-3.49;94.36
30636;BME280;17400;52.392;9.750;2022-12-18T08:35:07;102478.84;;;-3.46;94.76
30636;BME280;17400;52.392;9.750;2022-12-18T08:37:36;102481.34;;;-3.41;94.62
30636;BME280;17400;52.392;9.750;2022-12-18T08:40:05;102465.63;;;-3.46;95.69
30636;BME280;17400;52.392;9.750;2022-12-18T08:42:33;102459.09;;;-3.16;96.37
30636;BME280;17400;52.392;9.750;2022-12-18T08:45:19;102464.41;;;-3.16;94.60
30636;BME280;17400;52.392;9.750;2022-12-18T08:47:47;102468.91;;;-2.98;94.12
30636;BME280;17400;52.392;9.750;2022-12-18T08:50:15;102464.28;;;-2.93;93.66
30636;BME280;17400;52.392;9.750;2022-12-18T08:52:43;102464.88;;;-2.86;93.57
30636;BME280;17400;52.392;9.750;2022-12-18T08:55:10;102459.31;;;-2.80;92.57
30636;BME280;17400;52.392;9.750;2022-12-18T08:57:38;102455.94;;;-2.83;92.96
30636;BME280;17400;52.392;9.750;2022-12-18T09:00:07;102457.84;;;-2.87;92.86
30636;BME280;17400;52.392;9.750;2022-12-18T09:02:36;102460.50;;;-2.87;93.41
30636;BME280;17400;52.392;9.750;2022-12-18T09:05:05;102464.28;;;-2.93;93.86
30636;BME280;17400;52.392;9.750;2022-12-18T09:07:33;102462.44;;;-2.91;94.27
30636;BME280;17400;52.392;9.750;2022-12-18T09:10:00;102456.22;;;-2.90;94.82
30636;BME280;17400;52.392;9.750;2022-12-18T09:12:28;102456.59;;;-2.78;94.95
30636;BME280;17400;52.392;9.750;2022-12-18T09:14:56;102457.66;;;-2.82;94.77
30636;BME280;17400;52.392;9.750;2022-12-18T09:17:23;102442.22;;;-2.73;94.82
30636;BME280;17400;52.392;9.750;2022-12-18T09:19:53;102436.91;;;-2.73;95.33
30636;BME280;17400;52.392;9.750;2022-12-18T09:22:20;102440.81;;;-2.61;95.53
30636;BME280;17400;52.392;9.750;2022-12-18T09:24:48;102436.66;;;-2.47;94.81
30636;BME280;17400;52.392;9.750;2022-12-18T09:27:16;102439.28;;;-2.46;94.85
30636;BME280;17400;52.392;9.750;2022-12-18T09:29:43;102438.31;;;-2.45;94.46
30636;BME280;17400;52.392;9.750;2022-12-18T09:32:11;102438.97;;;-2.40;94.55
30636;BME280;17400;52.392;9.750;2022-12-18T09:34:47;102435.66;;;-2.45;95.07
30636;BME280;17400;52.392;9.750;2022-12-18T09:37:17;102431.81;;;-2.38;95.20
30636;BME280;17400;52.392;9.750;2022-12-18T09:39:44;102443.00;;;-2.50;96.01
30636;BME280;17400;52.392;9.750;2022-12-18T09:42:18;102443.13;;;-2.53;97.06
30636;BME280;17400;52.392;9.750;2022-12-18T09:44:50;102449.72;;;-2.43;97.05
30636;BME280;17400;52.392;9.750;2022-12-18T09:47:21;102448.47;;;-2.34;97.14
30636;BME280;17400;52.392;9.750;2022-12-18T09:49:55;102455.63;;;-2.36;97.37
30636;BME280;17400;52.392;9.750;2022-12-18T09:52:28;102443.84;;;-2.30;97.36
30636;BME280;17400;52.392;9.750;2022-12-18T09:55:03;102455.63;;;-2.17;97.13
30636;BME280;17400;52.392;9.750;2022-12-18T09:57:37;102462.66;;;-2.16;96.85
30636;BME280;17400;52.392;9.750;2022-12-18T10:00:16;102463.22;;;-2.09;97.52
30636;BME280;17400;52.392;9.750;2022-12-18T10:02:46;102452.50;;;-2.06;97.18
30636;BME280;17400;52.392;9.750;2022-12-18T10:05:16;102453.03;;;-2.19;97.69
30636;BME280;17400;52.392;9.750;2022-12-18T10:07:53;102449.31;;;-2.14;98.42
30636;BME280;17400;52.392;9.750;2022-12-18T10:10:37;102448.75;;;-2.02;97.83
30636;BME280;17400;52.392;9.750;2022-12-18T10:13:12;102451.66;;;-1.89;97.69
30636;BME280;17400;52.392;9.750;2022-12-18T10:15:54;102450.81;;;-1.90;97.51
30636;BME280;17400;52.392;9.750;2022-12-18T10:18:38;102464.94;;;-1.89;97.73
30636;BME280;17400;52.392;9.750;2022-12-18T10:21:11;102465.22;;;-1.76;97.19
30636;BME280;17400;52.392;9.750;2022-12-18T10:23:47;102459.34;;;-1.64;96.57
30636;BME280;17400;52.392;9.750;2022-12-18T10:26:17;102460.59;;;-1.54;95.50
30636;BME280;17400;52.392;9.750;2022-12-18T10:28:47;102456.22;;;-1.55;95.87
30636;BME280;17400;52.392;9.750;2022-12-18T10:31:17;102455.16;;;-1.51;95.48
30636;BME280;17400;52.392;9.750;2022-12-18T10:33:45;102454.81;;;-1.44;95.39
30636;BME280;17400;52.392;9.750;2022-12-18T10:36:13;102451.69;;;-1.53;95.63
30636;BME280;17400;52.392;9.750;2022-12-18T10:38:42;102446.63;;;-1.40;95.78
30636;BME280;17400;52.392;9.750;2022-12-18T10:41:24;102448.59;;;-1.26;95.49
30636;BME280;17400;52.392;9.750;2022-12-18T10:44:14;102450.03;;;-1.19;94.78
30636;BME280;17400;52.392;9.750;2022-12-18T10:46:44;102445.56;;;-1.18;94.74
30636;BME280;17400;52.392;9.750;2022-12-18T10:49:23;102443.31;;;-1.08;95.37
30636;BME280;17400;52.392;9.750;2022-12-18T10:52:05;102442.41;;;-1.09;95.47
30636;BME280;17400;52.392;9.750;2022-12-18T10:54:34;102435.69;;;-0.98;95.42
30636;BME280;17400;52.392;9.750;2022-12-18T10:57:17;102423.41;;;-0.84;95.32
30636;BME280;17400;52.392;9.750;2022-12-18T10:59:53;102429.69;;;-0.85;95.21
30636;BME280;17400;52.392;9.750;2022-12-18T11:02:26;102424.69;;;-0.91;96.15
30636;BME280;17400;52.392;9.750;2022-12-18T11:04:55;102407.09;;;-0.93;96.37
30636;BME280;17400;52.392;9.750;2022-12-18T11:07:23;102402.00;;;-0.98;97.14
30636;BME280;17400;52.392;9.750;2022-12-18T11:10:01;102389.09;;;-0.88;97.62
30636;BME280;17400;52.392;9.750;2022-12-18T11:12:29;102390.44;;;-0.97;97.50
30636;BME280;17400;52.392;9.750;2022-12-18T11:14:56;102398.25;;;-0.94;97.48
30636;BME280;17400;52.392;9.750;2022-12-18T11:17:29;102406.38;;;-0.97;97.08
30636;BME280;17400;52.392;9.750;2022-12-18T11:19:58;102394.28;;;-1.03;97.57
30636;BME280;17400;52.392;9.750;2022-12-18T11:22:29;102408.81;;;-0.92;97.20
30636;BME280;17400;52.392;9.750;2022-12-18T11:25:00;102405.13;;;-0.90;96.46
30636;BME280;17400;52.392;9.750;2022-12-18T11:27:51;102416.53;;;-0.88;95.91
30636;BME280;17400;52.392;9.750;2022-12-18T11:30:24;102410.72;;;-0.78;95.91
30636;BME280;17400;52.392;9.750;2022-12-18T11:32:55;102408.59;;;-0.72;95.25
30636;BME280;17400;52.392;9.750;2022-12-18T11:35:34;102397.06;;;-0.88;94.59
30636;BME280;17400;52.392;9.750;2022-12-18T11:38:17;102394.09;;;-0.82;95.47
30636;BME280;17400;52.392;9.750;2022-12-18T11:40:50;102394.78;;;-0.78;95.05
30636;BME280;17400;52.392;9.750;2022-12-18T11:43:23;102395.69;;;-0.79;95.49
30636;BME280;17400;52.392;9.750;2022-12-18T11:45:56;102382.50;;;-0.81;96.36
30636;BME280;17400;52.392;9.750;2022-12-18T11:48:27;102372.59;;;-0.95;96.69
30636;BME280;17400;52.392;9.750;2022-12-18T11:50:57;102367.91;;;-0.90;97.14
30636;BME280;17400;52.392;9.750;2022-12-18T11:53:27;102354.25;;;-0.84;96.73
30636;BME280;17400;52.392;9.750;2022-12-18T11:56:17;102343.47;;;-0.80;96.92
30636;BME280;17400;52.392;9.750;2022-12-18T11:59:01;102335.84;;;-0.71;96.49
30636;BME280;17400;52.392;9.750;2022-12-18T12:01:41;102335.34;;;-0.61;95.59
30636;BME280;17400;52.392;9.750;2022-12-18T12:04:35;102324.19;;;-0.52;95.60
30636;BME280;17400;52.392;9.750;2022-12-18T12:07:21;102322.94;;;-0.45;95.61
30636;BME280;17400;52.392;9.750;2022-12-18T12:10:01;102315.53;;;-0.40;94.95
30636;BME280;17400;52.392;9.750;2022-12-18T12:12:39;102317.94;;;-0.35;94.21
30636;BME280;17400;52.392;9.750;2022-12-18T12:15:26;102311.41;;;-0.29;94.12
30636;BME280;17400;52.392;9.750;2022-12-18T12:18:00;102304.22;;;-0.27;94.07
30636;BME280;17400;52.392;9.750;2022-12-18T12:20:45;102305.94;;;-0.26;93.39
30636;BME280;17400;52.392;9.750;2022-12-18T12:23:23;102303.94;;;-0.39;93.51
30636;BME280;17400;52.392;9.750;2022-12-18T12:25:57;102296.66;;;-0.35;93.27
30636;BME280;17400;52.392;9.750;2022-12-18T12:28:47;102299.81;;;-0.28;93.30
30636;BME280;17400;52.392;9.750;2022-12-18T12:31:28;102302.50;;;-0.28;92.50
30636;BME280;17400;52.392;9.750;2022-12-18T12:34:04;102304.13;;;-0.26;91.04
30636;BME280;17400;52.392;9.750;2022-12-18T12:36:41;102295.28;;;-0.26;90.14
30636;BME280;17400;52.392;9.750;2022-12-18T12:39:18;102290.91;;;-0.27;89.42
30636;BME280;17400;52.392;9.750;2022-12-18T12:41:49;102290.41;;;-0.34;87.62
30636;BME280;17400;52.392;9.750;2022-12-18T12:44:40;102286.84;;;-0.35;87.98
30636;BME280;17400;52.392;9.750;2022-12-18T12:47:14;102286.00;;;-0.35;88.19
30636;BME280;17400;52.392;9.750;2022-12-18T12:49:43;102278.88;;;-0.35;88.91
30636;BME280;17400;52.392;9.750;2022-12-18T12:52:22;102280.94;;;-0.40;88.96
30636;BME280;17400;52.392;9.750;2022-12-18T12:54:54;102274.75;;;-0.40;88.74
30636;BME280;17400;52.392;9.750;2022-12-18T12:57:30;102277.53;;;-0.42;88.77
30636;BME280;17400;52.392;9.750;2022-12-18T13:00:03;102278.13;;;-0.37;89.38
30636;BME280;17400;52.392;9.750;2022-12-18T13:02:35;102271.78;;;-0.34;88.93
30636;BME280;17400;52.392;9.750;2022-12-18T13:05:16;102264.81;;;-0.37;88.72
30636;BME280;17400;52.392;9.750;2022-12-18T13:07:50;102269.84;;;-0.32;88.53
30636;BME280;17400;52.392;9.750;2022-12-18T13:10:31;102264.63;;;-0.34;87.41